createdAt,value
2023-03-26T00:02:15.949Z,9.13
2023-03-26T00:04:47.174Z,9.11
2023-03-26T00:07:16.595Z,9.09
2023-03-26T00:09:45.561Z,9.08
2023-03-26T00:12:19.293Z,9.06
2023-03-26T00:14:53.197Z,9.05
2023-03-26T00:17:22.524Z,9.06
2023-03-26T00:19:54.124Z,9.05
2023-03-26T00:22:24.192Z,9.03
2023-03-26T00:24:53.056Z,9.01
2023-03-26T00:27:22.026Z,8.99
2023-03-26T00:29:51.160Z,8.98
2023-03-26T00:32:20.080Z,8.99
2023-03-26T00:34:49.121Z,8.97
2023-03-26T00:37:18.845Z,8.96
2023-03-26T00:39:49.658Z,8.95
2023-03-26T00:42:19.021Z,8.95
2023-03-26T00:44:48.593Z,8.94
2023-03-26T00:47:18.179Z,8.93
2023-03-26T00:49:49.363Z,8.91
2023-03-26T00:52:21.576Z,8.91
2023-03-26T00:54:56.744Z,8.90
2023-03-26T00:57:36.040Z,8.89
2023-03-26T01:00:17.164Z,8.89
2023-03-26T01:02:47.454Z,8.88
2023-03-26T01:05:35.937Z,8.88
2023-03-26T01:08:15.788Z,8.89
2023-03-26T01:10:51.321Z,8.90
2023-03-26T01:13:22.059Z,8.89
2023-03-26T01:15:51.598Z,8.89
2023-03-26T01:18:26.858Z,8.89
2023-03-26T01:21:05.616Z,8.89
2023-03-26T01:23:40.832Z,8.91
2023-03-26T01:26:12.843Z,8.91
2023-03-26T01:28:45.457Z,8.93
2023-03-26T01:31:37.565Z,8.94
2023-03-26T01:34:12.975Z,8.95
2023-03-26T01:36:43.803Z,8.97
2023-03-26T01:39:28.184Z,8.99
2023-03-26T01:42:05.560Z,9.01
2023-03-26T01:44:44.248Z,9.03
2023-03-26T01:47:13.289Z,9.05
2023-03-26T01:49:42.524Z,9.07
2023-03-26T01:52:13.405Z,9.08
2023-03-26T01:54:47.061Z,9.09
2023-03-26T01:57:20.883Z,9.09
2023-03-26T02:00:13.467Z,9.10
2023-03-26T02:03:05.003Z,9.13
2023-03-26T02:05:44.296Z,9.15
2023-03-26T02:08:21.561Z,9.17
2023-03-26T02:10:52.180Z,9.18
2023-03-26T02:13:21.375Z,9.20
2023-03-26T02:15:57.829Z,9.21
2023-03-26T02:18:36.589Z,9.22
2023-03-26T02:21:12.795Z,9.23
2023-03-26T02:23:42.952Z,9.25
2023-03-26T02:26:11.843Z,9.26
2023-03-26T02:28:50.521Z,9.26
2023-03-26T02:31:22.262Z,9.28
2023-03-26T02:33:51.541Z,9.28
2023-03-26T02:36:25.481Z,9.30
2023-03-26T02:38:58.372Z,9.32
2023-03-26T02:41:29.704Z,9.34
2023-03-26T02:44:02.370Z,9.36
2023-03-26T02:46:52.201Z,9.37
2023-03-26T02:49:43.773Z,9.38
2023-03-26T02:52:19.026Z,9.39
2023-03-26T02:54:56.679Z,9.40
2023-03-26T02:57:27.289Z,9.42
2023-03-26T03:00:23.155Z,9.43
2023-03-26T03:03:12.024Z,9.43
2023-03-26T03:06:04.327Z,9.41
2023-03-26T03:08:47.707Z,9.36
2023-03-26T03:11:43.801Z,9.31
2023-03-26T03:14:12.793Z,9.26
2023-03-26T03:16:44.445Z,9.22
2023-03-26T03:19:13.757Z,9.18
2023-03-26T03:21:47.071Z,9.13
2023-03-26T03:24:18.858Z,9.07
2023-03-26T03:26:50.757Z,9.01
2023-03-26T03:29:57.401Z,8.95
2023-03-26T03:32:47.769Z,8.92
2023-03-26T03:35:21.705Z,8.88
2023-03-26T03:37:53.512Z,8.84
2023-03-26T03:40:22.766Z,8.79
2023-03-26T03:42:52.373Z,8.77
2023-03-26T03:45:29.439Z,8.74
2023-03-26T03:48:24.648Z,8.71
2023-03-26T03:50:54.979Z,8.66
2023-03-26T03:53:37.489Z,8.64
2023-03-26T03:56:26.890Z,8.63
2023-03-26T03:59:18.420Z,8.62
2023-03-26T04:01:48.899Z,8.59
2023-03-26T04:04:39.007Z,8.57
2023-03-26T04:07:12.507Z,8.55
2023-03-26T04:10:03.040Z,8.53
2023-03-26T04:12:44.136Z,8.52
2023-03-26T04:15:18.309Z,8.51
2023-03-26T04:17:48.351Z,8.50
2023-03-26T04:20:20.021Z,8.49
2023-03-26T04:22:50.365Z,8.47
2023-03-26T04:25:30.937Z,8.46
2023-03-26T04:28:09.221Z,8.42
2023-03-26T04:31:01.393Z,8.38
2023-03-26T04:33:39.738Z,8.36
2023-03-26T04:36:09.570Z,8.34
2023-03-26T04:38:41.060Z,8.34
2023-03-26T04:41:14.222Z,8.34
2023-03-26T04:43:51.103Z,8.35
2023-03-26T04:46:44.259Z,8.35
2023-03-26T04:49:35.539Z,8.36
2023-03-26T04:52:05.092Z,8.37
2023-03-26T04:54:54.480Z,8.39
2023-03-26T04:57:26.272Z,8.42
2023-03-26T05:00:16.862Z,8.45
2023-03-26T05:02:56.442Z,8.46
2023-03-26T05:05:26.476Z,8.46
2023-03-26T05:07:55.836Z,8.45
2023-03-26T05:10:27.142Z,8.43
2023-03-26T05:13:08.137Z,8.45
2023-03-26T05:15:40.879Z,8.53
2023-03-26T05:18:11.091Z,8.65
2023-03-26T05:20:44.026Z,8.81
2023-03-26T05:23:14.499Z,8.97
2023-03-26T05:25:47.765Z,9.11
2023-03-26T05:28:24.891Z,9.21
2023-03-26T05:31:01.549Z,9.26
2023-03-26T05:33:34.574Z,9.26
2023-03-26T05:36:20.017Z,9.25
2023-03-26T05:38:52.871Z,9.25
2023-03-26T05:41:47.903Z,9.24
2023-03-26T05:44:23.820Z,9.20
2023-03-26T05:46:52.850Z,9.17
2023-03-26T05:49:25.305Z,9.15
2023-03-26T05:52:00.920Z,9.16
2023-03-26T05:54:38.890Z,9.18
2023-03-26T05:57:28.908Z,9.23
2023-03-26T06:00:19.132Z,9.25
2023-03-26T06:02:49.127Z,9.27
2023-03-26T06:05:40.317Z,9.31
2023-03-26T06:08:22.587Z,9.37
2023-03-26T06:11:13.771Z,9.42
2023-03-26T06:13:42.801Z,9.50
2023-03-26T06:16:26.320Z,9.57
2023-03-26T06:19:09.439Z,9.64
2023-03-26T06:21:51.378Z,9.67
2023-03-26T06:24:32.229Z,9.73
2023-03-26T06:27:24.663Z,9.76
2023-03-26T06:30:13.698Z,9.73
2023-03-26T06:32:55.943Z,9.73
2023-03-26T06:35:30.370Z,9.75
2023-03-26T06:37:59.246Z,9.79
2023-03-26T06:40:31.667Z,9.83
2023-03-26T06:43:18.876Z,9.89
2023-03-26T06:46:05.873Z,9.97
2023-03-26T06:48:43.050Z,10.06
2023-03-26T06:51:50.256Z,10.16
2023-03-26T06:54:39.154Z,10.27
2023-03-26T06:57:28.262Z,10.35
2023-03-26T07:00:26.560Z,10.44
2023-03-26T07:03:14.457Z,10.52
2023-03-26T07:06:04.509Z,10.66
2023-03-26T07:08:51.921Z,10.86
2023-03-26T07:11:39.325Z,11.06
2023-03-26T07:14:47.476Z,11.22
2023-03-26T07:17:28.163Z,11.35
2023-03-26T07:20:06.458Z,11.46
2023-03-26T07:22:36.526Z,11.58
2023-03-26T07:25:17.197Z,11.72
2023-03-26T07:28:01.297Z,11.82
2023-03-26T07:31:35.233Z,12.02
2023-03-26T07:34:27.365Z,12.22
2023-03-26T07:37:24.319Z,12.37
2023-03-26T07:40:26.408Z,12.51
2023-03-26T07:43:18.117Z,12.71
2023-03-26T07:46:28.229Z,12.83
2023-03-26T07:49:22.515Z,12.92
2023-03-26T07:52:24.119Z,13.07
2023-03-26T07:55:01.644Z,13.22
2023-03-26T07:57:55.420Z,13.35
2023-03-26T08:00:37.631Z,13.49
2023-03-26T08:03:11.215Z,13.60
2023-03-26T08:06:15.241Z,13.67
2023-03-26T08:09:37.001Z,13.78
2023-03-26T08:12:48.973Z,13.82
2023-03-26T08:15:23.027Z,13.72
2023-03-26T08:17:54.873Z,13.63
2023-03-26T08:20:28.646Z,13.54
2023-03-26T08:23:17.883Z,13.42
2023-03-26T08:25:54.597Z,13.29
2023-03-26T08:28:35.780Z,13.26
2023-03-26T08:31:05.833Z,13.29
2023-03-26T08:33:36.487Z,13.33
2023-03-26T08:36:09.767Z,13.39
2023-03-26T08:38:38.821Z,13.46
2023-03-26T08:41:17.541Z,13.54
2023-03-26T08:43:49.112Z,13.61
2023-03-26T08:46:18.847Z,13.67
2023-03-26T08:49:06.512Z,13.74
2023-03-26T08:51:42.238Z,13.80
2023-03-26T08:54:24.432Z,13.84
2023-03-26T08:57:11.970Z,13.91
2023-03-26T08:59:40.625Z,13.94
2023-03-26T09:02:20.013Z,13.91
2023-03-26T09:04:54.134Z,13.87
2023-03-26T09:07:22.851Z,13.88
2023-03-26T09:09:58.643Z,13.93
2023-03-26T09:12:28.650Z,13.98
2023-03-26T09:15:16.564Z,14.06
2023-03-26T09:17:56.665Z,14.19
2023-03-26T09:20:29.699Z,14.29
2023-03-26T09:23:06.628Z,14.30
2023-03-26T09:25:46.751Z,14.31
2023-03-26T09:28:29.274Z,14.28
2023-03-26T09:31:13.458Z,14.23
2023-03-26T09:33:52.640Z,14.18
2023-03-26T09:36:39.787Z,14.08
2023-03-26T09:39:14.794Z,14.05
2023-03-26T09:42:05.365Z,14.04
2023-03-26T09:44:53.728Z,14.01
2023-03-26T09:47:35.410Z,14.00
2023-03-26T09:50:19.975Z,14.02
2023-03-26T09:52:50.830Z,14.04
2023-03-26T09:55:40.834Z,14.06
2023-03-26T09:58:18.935Z,14.08
2023-03-26T10:01:09.191Z,14.05
2023-03-26T10:03:46.635Z,13.98
2023-03-26T10:06:53.882Z,13.95
2023-03-26T10:09:37.968Z,14.00
2023-03-26T10:12:12.491Z,14.08
2023-03-26T10:15:00.119Z,14.16
2023-03-26T10:17:48.568Z,14.22
2023-03-26T10:20:40.821Z,14.24
2023-03-26T10:23:27.455Z,14.25
2023-03-26T10:25:57.217Z,14.21
2023-03-26T10:28:45.698Z,14.13
2023-03-26T10:31:26.696Z,14.07
2023-03-26T10:34:10.291Z,14.05
2023-03-26T10:36:57.931Z,14.02
2023-03-26T10:39:45.863Z,13.97
2023-03-26T10:42:14.451Z,13.86
2023-03-26T10:44:45.333Z,13.69
2023-03-26T10:47:35.747Z,13.51
2023-03-26T10:52:28.222Z,13.31
2023-03-26T10:55:17.357Z,13.20
2023-03-26T10:57:53.469Z,13.09
2023-03-26T11:00:29.602Z,13.01
2023-03-26T11:03:33.849Z,12.96
2023-03-26T11:06:20.611Z,12.97
2023-03-26T11:09:08.821Z,13.01
2023-03-26T11:11:53.108Z,13.03
2023-03-26T11:14:48.946Z,13.07
2023-03-26T11:17:39.485Z,13.08
2023-03-26T11:20:11.599Z,13.03
2023-03-26T11:22:56.249Z,13.00
2023-03-26T11:25:59.493Z,12.92
2023-03-26T11:29:05.615Z,12.78
2023-03-26T11:31:49.764Z,12.62
2023-03-26T11:34:21.291Z,12.56
2023-03-26T11:36:52.962Z,12.56
2023-03-26T11:39:27.581Z,12.60
2023-03-26T11:42:11.574Z,12.65
2023-03-26T11:44:56.886Z,12.73
2023-03-26T11:47:48.871Z,12.83
2023-03-26T11:50:33.069Z,12.92
2023-03-26T11:53:18.080Z,12.99
2023-03-26T11:55:49.539Z,13.05
2023-03-26T11:58:34.266Z,13.13
2023-03-26T12:01:13.656Z,13.22
2023-03-26T12:03:44.294Z,13.29
2023-03-26T12:06:33.445Z,13.34
2023-03-26T12:09:03.042Z,13.41
2023-03-26T12:11:35.602Z,13.48
2023-03-26T12:14:05.026Z,13.55
2023-03-26T12:16:38.305Z,13.60
2023-03-26T12:19:19.473Z,13.58
2023-03-26T12:21:50.222Z,13.55
2023-03-26T12:24:30.086Z,13.52
2023-03-26T12:27:22.432Z,13.50
2023-03-26T12:30:11.219Z,13.50
2023-03-26T12:32:46.410Z,13.51
2023-03-26T12:35:29.660Z,13.55
2023-03-26T12:38:23.552Z,13.58
2023-03-26T12:41:08.980Z,13.58
2023-03-26T12:44:53.671Z,13.59
2023-03-26T12:47:57.979Z,13.60
2023-03-26T12:49:47.080Z,13.63
2023-03-26T12:52:34.626Z,13.69
2023-03-26T12:55:26.973Z,13.76
2023-03-26T12:58:00.345Z,13.80
2023-03-26T13:00:57.706Z,13.84
2023-03-26T13:03:38.307Z,13.87
2023-03-26T13:06:28.121Z,13.84
2023-03-26T13:09:20.287Z,13.83
2023-03-26T13:12:02.213Z,13.82
2023-03-26T13:14:35.757Z,13.79
2023-03-26T13:17:10.434Z,13.76
2023-03-26T13:19:53.895Z,13.71
2023-03-26T13:22:36.491Z,13.64
2023-03-26T13:25:19.333Z,13.54
2023-03-26T13:28:16.540Z,13.47
2023-03-26T13:30:52.487Z,13.43
2023-03-26T13:33:32.743Z,13.43
2023-03-26T13:36:23.882Z,13.46
2023-03-26T13:38:58.578Z,13.49
2023-03-26T13:42:00.045Z,13.49
2023-03-26T13:44:34.151Z,13.48
2023-03-26T13:47:07.946Z,13.47
2023-03-26T13:49:37.762Z,13.46
2023-03-26T13:52:08.978Z,13.47
2023-03-26T13:55:24.081Z,13.48
2023-03-26T13:58:02.538Z,13.51
2023-03-26T14:00:38.676Z,13.52
2023-03-26T14:03:22.311Z,13.54
2023-03-26T14:05:52.572Z,13.54
2023-03-26T14:08:33.343Z,13.53
2023-03-26T14:11:21.301Z,13.48
2023-03-26T14:13:55.184Z,13.38
2023-03-26T14:16:47.408Z,13.27
2023-03-26T14:19:22.079Z,13.07
2023-03-26T14:21:58.826Z,12.83
2023-03-26T14:24:43.014Z,12.59
2023-03-26T14:27:30.416Z,12.34
2023-03-26T14:30:18.257Z,12.10
2023-03-26T14:33:28.250Z,11.89
2023-03-26T14:36:10.258Z,11.70
2023-03-26T14:39:14.532Z,11.59
2023-03-26T14:41:49.802Z,11.49
2023-03-26T14:44:49.245Z,11.44
2023-03-26T14:47:21.356Z,11.40
2023-03-26T14:50:06.928Z,11.37
2023-03-26T14:52:52.143Z,11.34
2023-03-26T14:55:35.917Z,11.28
2023-03-26T14:58:28.346Z,11.22
2023-03-26T15:01:20.517Z,11.14
2023-03-26T15:04:10.165Z,11.06
2023-03-26T15:06:58.799Z,11.00
2023-03-26T15:09:49.456Z,10.95
2023-03-26T15:12:41.573Z,10.91
2023-03-26T15:15:38.530Z,10.84
2023-03-26T15:18:31.721Z,10.73
2023-03-26T15:21:01.173Z,10.47
2023-03-26T15:23:53.412Z,10.27
2023-03-26T15:26:47.196Z,10.07
2023-03-26T15:29:42.756Z,9.89
2023-03-26T15:32:30.604Z,9.77
2023-03-26T15:35:17.974Z,9.71
2023-03-26T15:37:53.164Z,9.68
2023-03-26T15:40:31.160Z,9.69
2023-03-26T15:43:16.662Z,9.70
2023-03-26T15:45:47.912Z,9.72
2023-03-26T15:48:26.311Z,9.74
2023-03-26T15:51:04.203Z,9.76
2023-03-26T15:53:54.231Z,9.75
2023-03-26T15:56:26.284Z,9.71
2023-03-26T15:59:05.698Z,9.65
2023-03-26T16:01:46.702Z,9.59
2023-03-26T16:04:22.427Z,9.52
2023-03-26T16:06:58.971Z,9.48
2023-03-26T16:09:42.637Z,9.42
2023-03-26T16:12:17.585Z,9.35
2023-03-26T16:15:16.214Z,9.28
2023-03-26T16:18:05.516Z,9.18
2023-03-26T16:20:36.062Z,9.08
2023-03-26T16:23:07.420Z,9.00
2023-03-26T16:25:55.149Z,8.92
2023-03-26T16:28:30.939Z,8.81
2023-03-26T16:31:37.010Z,8.73
2023-03-26T16:34:19.432Z,8.63
2023-03-26T16:36:51.969Z,8.55
2023-03-26T16:39:44.632Z,8.49
2023-03-26T16:42:28.399Z,8.41
2023-03-26T16:45:05.046Z,8.33
2023-03-26T16:47:42.263Z,8.24
2023-03-26T16:50:35.848Z,8.17
2023-03-26T16:53:25.092Z,8.10
2023-03-26T16:56:07.514Z,8.06
2023-03-26T16:59:17.349Z,8.01
2023-03-26T17:01:48.633Z,7.96
2023-03-26T17:04:23.974Z,7.90
2023-03-26T17:07:09.628Z,7.86
2023-03-26T17:09:58.872Z,7.80
2023-03-26T17:12:34.315Z,7.73
2023-03-26T17:15:29.387Z,7.65
2023-03-26T17:18:22.431Z,7.57
2023-03-26T17:21:06.972Z,7.50
2023-03-26T17:23:42.772Z,7.46
2023-03-26T17:26:28.459Z,7.44
2023-03-26T17:29:18.208Z,7.42
2023-03-26T17:31:58.993Z,7.41
2023-03-26T17:34:39.644Z,7.39
2023-03-26T17:37:31.139Z,7.35
2023-03-26T17:40:10.051Z,7.28
2023-03-26T17:42:39.371Z,7.23
2023-03-26T17:45:20.872Z,7.17
2023-03-26T17:48:02.958Z,7.09
2023-03-26T17:50:34.264Z,7.02
2023-03-26T17:53:07.952Z,6.95
2023-03-26T17:55:39.983Z,6.89
2023-03-26T17:58:58.974Z,6.83
2023-03-26T18:01:41.824Z,6.76
2023-03-26T18:04:18.949Z,6.70
2023-03-26T18:07:15.768Z,6.65
2023-03-26T18:10:10.975Z,6.59
2023-03-26T18:12:58.917Z,6.52
2023-03-26T18:15:39.630Z,6.45
2023-03-26T18:18:28.613Z,6.40
2023-03-26T18:20:58.021Z,6.34
2023-03-26T18:23:36.108Z,6.30
2023-03-26T18:26:15.908Z,6.25
2023-03-26T18:28:53.533Z,6.18
2023-03-26T18:31:25.579Z,6.14
2023-03-26T18:33:59.469Z,6.09
2023-03-26T18:36:28.862Z,6.04
2023-03-26T18:39:01.630Z,5.99
2023-03-26T18:41:42.143Z,5.94
2023-03-26T18:44:16.300Z,5.89
2023-03-26T18:46:45.739Z,5.84
2023-03-26T18:49:16.319Z,5.79
2023-03-26T18:51:56.718Z,5.74
2023-03-26T18:54:26.629Z,5.70
2023-03-26T18:56:55.707Z,5.65
2023-03-26T18:59:28.419Z,5.61
2023-03-26T19:02:05.678Z,5.59
2023-03-26T19:04:35.425Z,5.57
2023-03-26T19:07:10.428Z,5.56
2023-03-26T19:09:40.629Z,5.56
2023-03-26T19:12:21.205Z,5.55
2023-03-26T19:15:17.805Z,5.56
2023-03-26T19:17:49.388Z,5.55
2023-03-26T19:20:27.073Z,5.54
2023-03-26T19:22:57.381Z,5.53
2023-03-26T19:25:29.882Z,5.50
2023-03-26T19:27:59.662Z,5.46
2023-03-26T19:30:34.353Z,5.44
2023-03-26T19:33:12.844Z,5.41
2023-03-26T19:35:43.685Z,5.38
2023-03-26T19:38:19.615Z,5.34
2023-03-26T19:40:49.129Z,5.31
2023-03-26T19:43:18.321Z,5.29
2023-03-26T19:45:59.357Z,5.27
2023-03-26T19:48:46.132Z,5.25
2023-03-26T19:51:32.077Z,5.23
2023-03-26T19:54:06.652Z,5.21
2023-03-26T19:56:36.679Z,5.20
2023-03-26T19:59:08.621Z,5.19
2023-03-26T20:01:38.958Z,5.19
2023-03-26T20:04:10.557Z,5.19
2023-03-26T20:06:44.144Z,5.19
2023-03-26T20:09:14.553Z,5.21
2023-03-26T20:11:43.542Z,5.23
2023-03-26T20:14:22.133Z,5.27
2023-03-26T20:16:51.137Z,5.31
2023-03-26T20:19:21.135Z,5.34
2023-03-26T20:21:56.064Z,5.36
2023-03-26T20:24:25.865Z,5.37
2023-03-26T20:26:55.033Z,5.37
2023-03-26T20:29:23.953Z,5.38
2023-03-26T20:31:52.819Z,5.37
2023-03-26T20:34:24.706Z,5.37
2023-03-26T20:37:01.408Z,5.36
2023-03-26T20:39:31.377Z,5.33
2023-03-26T20:42:01.219Z,5.31
2023-03-26T20:44:31.117Z,5.30
2023-03-26T20:47:00.676Z,5.27
2023-03-26T20:49:30.434Z,5.24
2023-03-26T20:52:00.936Z,5.19
2023-03-26T20:54:32.076Z,5.15
2023-03-26T20:57:00.993Z,5.11
2023-03-26T20:59:33.520Z,5.05
2023-03-26T21:02:02.509Z,5.00
2023-03-26T21:04:32.554Z,4.95
2023-03-26T21:07:10.988Z,4.92
2023-03-26T21:09:49.631Z,4.87
2023-03-26T21:12:28.447Z,4.85
2023-03-26T21:14:58.977Z,4.84
2023-03-26T21:17:28.961Z,4.84
2023-03-26T21:20:03.049Z,4.84
2023-03-26T21:22:44.914Z,4.84
2023-03-26T21:25:46.468Z,4.84
2023-03-26T21:28:35.727Z,4.87
2023-03-26T21:31:19.482Z,4.90
2023-03-26T21:33:49.801Z,4.91
2023-03-26T21:36:20.260Z,4.92
2023-03-26T21:38:51.021Z,4.93
2023-03-26T21:41:36.287Z,4.95
2023-03-26T21:44:05.987Z,4.95
2023-03-26T21:46:35.390Z,4.97
2023-03-26T21:49:06.422Z,4.99
2023-03-26T21:51:36.874Z,5.00
2023-03-26T21:54:23.241Z,5.02
2023-03-26T21:57:17.934Z,5.03
2023-03-26T22:00:33.579Z,5.04
2023-03-26T22:03:19.732Z,5.06
2023-03-26T22:05:57.865Z,5.08
2023-03-26T22:08:37.149Z,5.09
2023-03-26T22:11:07.531Z,5.09
2023-03-26T22:13:36.295Z,5.09
2023-03-26T22:16:07.324Z,5.09
2023-03-26T22:18:36.329Z,5.09
2023-03-26T22:21:06.206Z,5.09
2023-03-26T22:23:36.778Z,5.07
2023-03-26T22:26:06.228Z,5.07
2023-03-26T22:28:35.717Z,5.08
2023-03-26T22:31:09.274Z,5.07
2023-03-26T22:33:40.479Z,5.07
2023-03-26T22:36:23.279Z,5.05
2023-03-26T22:38:54.333Z,5.04
2023-03-26T22:41:24.901Z,5.03
2023-03-26T22:43:54.906Z,5.03
2023-03-26T22:46:25.002Z,5.03
2023-03-26T22:48:54.595Z,5.05
2023-03-26T22:51:28.610Z,5.05
2023-03-26T22:53:57.826Z,5.04
2023-03-26T22:56:26.738Z,5.03
2023-03-26T22:58:55.811Z,5.02
2023-03-26T23:01:25.259Z,5.00
2023-03-26T23:03:54.818Z,5.00
2023-03-26T23:06:23.746Z,5.00
2023-03-26T23:08:52.793Z,4.99
2023-03-26T23:11:22.499Z,4.97
2023-03-26T23:13:52.334Z,4.96
2023-03-26T23:16:21.947Z,4.94
2023-03-26T23:18:50.981Z,4.92
2023-03-26T23:21:21.465Z,4.90
2023-03-26T23:23:52.483Z,4.88
2023-03-26T23:26:24.457Z,4.86
2023-03-26T23:28:54.480Z,4.84
2023-03-26T23:31:26.206Z,4.82
2023-03-26T23:33:55.376Z,4.80
2023-03-26T23:36:24.413Z,4.78
2023-03-26T23:38:56.735Z,4.74
2023-03-26T23:41:25.772Z,4.72
2023-03-26T23:43:55.825Z,4.70
2023-03-26T23:46:31.122Z,4.69
2023-03-26T23:49:02.738Z,4.68
2023-03-26T23:51:36.402Z,4.66
2023-03-26T23:54:05.672Z,4.65
2023-03-26T23:56:40.884Z,4.63
2023-03-26T23:59:10.157Z,4.61
